createdAt,value
2022-10-23T00:01:11.041Z,4.25
2022-10-23T00:03:37.546Z,3.63
2022-10-23T00:06:05.405Z,4.05
2022-10-23T00:08:31.925Z,3.90
2022-10-23T00:10:58.526Z,4.30
2022-10-23T00:13:25.164Z,5.15
2022-10-23T00:18:23.390Z,4.00
2022-10-23T00:20:50.001Z,4.22
2022-10-23T00:23:17.461Z,3.88
2022-10-23T00:25:44.104Z,4.25
2022-10-23T00:28:11.075Z,3.97
2022-10-23T00:30:37.686Z,4.20
2022-10-23T00:33:04.525Z,4.82
2022-10-23T00:35:31.368Z,4.18
2022-10-23T00:37:58.054Z,4.10
2022-10-23T00:40:24.577Z,3.75
2022-10-23T00:42:51.194Z,4.10
2022-10-23T00:45:31.744Z,4.15
2022-10-23T00:47:58.345Z,4.07
2022-10-23T00:50:27.640Z,4.32
2022-10-23T00:52:57.008Z,4.55
2022-10-23T00:55:25.478Z,3.55
2022-10-23T00:57:52.669Z,4.32
2022-10-23T01:00:23.968Z,3.70
2022-10-23T01:02:51.325Z,3.78
2022-10-23T01:05:20.048Z,4.10
2022-10-23T01:07:52.829Z,3.90
2022-10-23T01:10:45.498Z,4.28
2022-10-23T01:13:21.458Z,3.90
2022-10-23T01:16:08.950Z,3.60
2022-10-23T01:18:46.556Z,3.60
2022-10-23T01:21:31.218Z,4.03
2022-10-23T01:24:20.268Z,4.10
2022-10-23T01:26:55.786Z,3.80
2022-10-23T01:29:39.824Z,3.85
2022-10-23T01:32:11.704Z,4.60
2022-10-23T01:34:41.126Z,4.10
2022-10-23T01:37:13.000Z,3.78
2022-10-23T01:39:47.223Z,3.90
2022-10-23T01:42:19.860Z,3.88
2022-10-23T01:45:02.129Z,3.80
2022-10-23T01:47:32.138Z,3.90
2022-10-23T01:50:00.062Z,4.10
2022-10-23T01:52:27.412Z,4.70
2022-10-23T01:54:59.395Z,3.95
2022-10-23T01:57:29.117Z,3.90
2022-10-23T02:00:01.772Z,4.00
2022-10-23T02:02:30.625Z,3.47
2022-10-23T02:05:06.621Z,4.15
2022-10-23T02:07:34.135Z,3.83
2022-10-23T02:10:01.214Z,3.75
2022-10-23T02:12:46.027Z,4.32
2022-10-23T02:15:22.350Z,4.18
2022-10-23T02:17:54.971Z,4.57
2022-10-23T02:23:36.151Z,4.20
2022-10-23T02:26:18.229Z,4.13
2022-10-23T02:28:56.172Z,3.70
2022-10-23T02:31:23.820Z,4.28
2022-10-23T02:33:50.848Z,4.05
2022-10-23T02:36:19.489Z,4.25
2022-10-23T02:38:46.522Z,4.18
2022-10-23T02:41:44.336Z,4.15
2022-10-23T02:47:14.588Z,3.45
2022-10-23T02:50:09.079Z,3.88
2022-10-23T02:53:02.038Z,4.05
2022-10-23T02:55:37.022Z,4.00
2022-10-23T02:58:15.804Z,4.22
2022-10-23T03:00:48.218Z,3.72
2022-10-23T03:03:22.326Z,4.05
2022-10-23T03:05:49.002Z,4.10
2022-10-23T03:08:15.683Z,4.30
2022-10-23T03:10:43.171Z,4.07
2022-10-23T03:13:11.180Z,4.15
2022-10-23T03:15:37.880Z,4.63
2022-10-23T03:18:04.649Z,4.60
2022-10-23T03:20:31.370Z,4.05
2022-10-23T03:22:57.907Z,4.63
2022-10-23T03:25:24.443Z,4.32
2022-10-23T03:27:52.004Z,4.50
2022-10-23T03:30:18.991Z,4.55
2022-10-23T03:32:45.853Z,4.95
2022-10-23T03:35:12.561Z,4.15
2022-10-23T03:37:39.252Z,3.92
2022-10-23T03:40:06.541Z,4.53
2022-10-23T03:42:33.081Z,4.35
2022-10-23T03:44:59.692Z,4.43
2022-10-23T03:47:26.300Z,4.32
2022-10-23T03:49:52.923Z,4.38
2022-10-23T03:52:19.474Z,4.65
2022-10-23T03:54:46.219Z,4.60
2022-10-23T03:57:12.749Z,4.35
2022-10-23T03:59:39.413Z,4.35
2022-10-23T04:02:05.991Z,4.72
2022-10-23T04:04:33.034Z,4.63
2022-10-23T04:06:59.588Z,4.20
2022-10-23T04:09:26.352Z,4.35
2022-10-23T04:11:52.955Z,3.92
2022-10-23T04:14:19.600Z,4.57
2022-10-23T04:16:46.135Z,4.63
2022-10-23T04:19:12.885Z,4.38
2022-10-23T04:21:39.507Z,4.05
2022-10-23T04:24:06.500Z,4.43
2022-10-23T04:26:33.041Z,4.63
2022-10-23T04:28:59.672Z,4.70
2022-10-23T04:31:26.892Z,4.75
2022-10-23T04:33:53.466Z,5.78
2022-10-23T04:36:20.122Z,4.80
2022-10-23T04:38:47.873Z,4.53
2022-10-23T04:41:14.489Z,4.50
2022-10-23T04:43:41.078Z,4.22
2022-10-23T04:46:07.926Z,4.82
2022-10-23T04:48:36.479Z,4.80
2022-10-23T04:51:05.529Z,4.25
2022-10-23T04:53:32.720Z,4.28
2022-10-23T04:55:59.749Z,4.75
2022-10-23T04:58:28.480Z,4.30
2022-10-23T05:00:55.934Z,4.32
2022-10-23T05:03:24.000Z,4.63
2022-10-23T05:05:54.301Z,5.30
2022-10-23T05:08:21.487Z,5.28
2022-10-23T05:10:49.797Z,5.20
2022-10-23T05:13:19.840Z,4.82
2022-10-23T05:15:51.484Z,4.50
2022-10-23T05:18:17.951Z,5.85
2022-10-23T05:20:46.116Z,5.72
2022-10-23T05:23:17.959Z,4.90
2022-10-23T05:25:44.568Z,4.75
2022-10-23T05:28:11.117Z,5.15
2022-10-23T05:30:38.569Z,4.80
2022-10-23T05:33:05.373Z,4.90
2022-10-23T05:35:32.088Z,5.03
2022-10-23T05:38:01.752Z,5.40
2022-10-23T05:40:28.732Z,5.07
2022-10-23T05:42:55.342Z,4.80
2022-10-23T05:45:22.187Z,5.35
2022-10-23T05:47:49.266Z,5.10
2022-10-23T05:50:16.519Z,5.38
2022-10-23T05:52:46.638Z,5.60
2022-10-23T05:55:13.402Z,5.18
2022-10-23T05:57:40.218Z,5.10
2022-10-23T06:00:07.650Z,5.70
2022-10-23T06:02:34.441Z,5.97
2022-10-23T06:05:01.229Z,5.72
2022-10-23T06:07:31.311Z,4.93
2022-10-23T06:10:00.599Z,5.20
2022-10-23T06:12:27.210Z,5.20
2022-10-23T06:14:53.826Z,5.20
2022-10-23T06:17:20.385Z,5.05
2022-10-23T06:19:47.177Z,4.88
2022-10-23T06:22:13.791Z,5.32
2022-10-23T06:24:40.350Z,4.88
2022-10-23T06:27:07.129Z,4.70
2022-10-23T06:29:33.725Z,5.15
2022-10-23T06:32:00.508Z,4.63
2022-10-23T06:34:27.198Z,4.75
2022-10-23T06:36:53.891Z,5.15
2022-10-23T06:39:22.113Z,4.82
2022-10-23T06:41:48.708Z,5.07
2022-10-23T06:44:15.285Z,4.93
2022-10-23T06:46:42.388Z,4.38
2022-10-23T06:49:08.948Z,6.10
2022-10-23T06:51:36.493Z,5.60
2022-10-23T06:54:03.025Z,4.43
2022-10-23T06:56:30.467Z,5.15
2022-10-23T06:58:56.967Z,5.18
2022-10-23T07:01:23.900Z,4.32
2022-10-23T07:03:50.718Z,5.05
2022-10-23T07:06:17.593Z,4.85
2022-10-23T07:08:44.248Z,4.60
2022-10-23T07:11:12.041Z,4.53
2022-10-23T07:13:39.719Z,4.88
2022-10-23T07:16:11.794Z,4.90
2022-10-23T07:18:38.523Z,5.00
2022-10-23T07:21:05.204Z,5.20
2022-10-23T07:23:31.958Z,5.43
2022-10-23T07:26:16.193Z,5.22
2022-10-23T07:28:46.420Z,4.97
2022-10-23T07:31:14.063Z,4.57
2022-10-23T07:33:40.883Z,4.97
2022-10-23T07:36:09.065Z,5.10
2022-10-23T07:38:35.693Z,4.60
2022-10-23T07:41:02.671Z,4.78
2022-10-23T07:43:29.631Z,4.80
2022-10-23T07:45:56.562Z,4.70
2022-10-23T07:48:23.998Z,4.72
2022-10-23T07:50:51.265Z,5.00
2022-10-23T07:53:20.589Z,4.63
2022-10-23T07:55:54.084Z,4.85
2022-10-23T07:58:20.679Z,4.80
2022-10-23T08:00:58.658Z,4.82
2022-10-23T08:03:27.168Z,4.57
2022-10-23T08:05:55.324Z,4.47
2022-10-23T08:08:26.093Z,4.22
2022-10-23T08:10:54.467Z,5.03
2022-10-23T08:13:22.263Z,4.20
2022-10-23T08:15:51.011Z,3.80
2022-10-23T08:18:17.850Z,4.38
2022-10-23T08:20:46.998Z,3.97
2022-10-23T08:23:17.021Z,4.15
2022-10-23T08:25:44.486Z,4.30
2022-10-23T08:28:11.360Z,4.10
2022-10-23T08:30:38.144Z,4.15
2022-10-23T08:33:05.664Z,4.00
2022-10-23T08:35:37.557Z,4.40
2022-10-23T08:38:05.155Z,3.90
2022-10-23T08:40:32.249Z,3.95
2022-10-23T08:43:13.440Z,3.90
2022-10-23T08:45:47.452Z,3.70
2022-10-23T08:48:23.627Z,3.72
2022-10-23T08:50:56.053Z,3.78
2022-10-23T08:53:31.834Z,3.42
2022-10-23T08:56:12.277Z,3.63
2022-10-23T08:59:08.202Z,3.70
2022-10-23T09:01:49.689Z,3.88
2022-10-23T09:04:17.093Z,3.50
2022-10-23T09:07:11.615Z,3.90
2022-10-23T09:09:44.232Z,4.90
2022-10-23T09:12:18.167Z,3.85
2022-10-23T09:15:14.855Z,3.78
2022-10-23T09:17:44.167Z,3.30
2022-10-23T09:20:19.494Z,3.30
2022-10-23T09:22:48.564Z,3.17
2022-10-23T09:25:21.822Z,3.70
2022-10-23T09:27:54.770Z,3.40
2022-10-23T09:30:38.323Z,3.30
2022-10-23T09:33:18.740Z,2.95
2022-10-23T09:36:00.218Z,2.97
2022-10-23T09:38:46.680Z,2.90
2022-10-23T09:41:25.459Z,3.40
2022-10-23T09:44:27.288Z,3.30
2022-10-23T09:46:59.432Z,2.92
2022-10-23T09:49:31.157Z,2.90
2022-10-23T09:52:22.697Z,3.08
2022-10-23T09:54:56.240Z,2.80
2022-10-23T09:57:30.934Z,3.40
2022-10-23T10:00:03.269Z,3.08
2022-10-23T10:02:35.581Z,3.75
2022-10-23T10:05:22.793Z,3.50
2022-10-23T10:08:21.624Z,3.33
2022-10-23T10:10:54.077Z,3.20
2022-10-23T10:13:32.515Z,3.13
2022-10-23T10:16:19.386Z,3.20
2022-10-23T10:19:22.838Z,2.90
2022-10-23T10:22:09.774Z,2.58
2022-10-23T10:24:56.453Z,2.75
2022-10-23T10:28:07.795Z,2.80
2022-10-23T10:31:01.631Z,2.78
2022-10-23T10:33:46.559Z,3.38
2022-10-23T10:36:34.394Z,3.78
2022-10-23T10:39:04.510Z,5.22
2022-10-23T10:41:58.708Z,3.38
2022-10-23T10:44:28.230Z,2.58
2022-10-23T10:47:14.947Z,2.90
2022-10-23T10:50:23.662Z,2.75
2022-10-23T10:53:03.393Z,2.63
2022-10-23T10:55:38.650Z,2.88
2022-10-23T10:58:12.175Z,2.75
2022-10-23T11:00:38.869Z,2.70
2022-10-23T11:03:17.482Z,2.30
2022-10-23T11:05:46.956Z,2.83
2022-10-23T11:08:21.902Z,2.80
2022-10-23T11:10:54.641Z,4.25
2022-10-23T11:13:34.469Z,2.83
2022-10-23T11:16:08.886Z,2.90
2022-10-23T11:18:37.619Z,2.60
2022-10-23T11:21:22.804Z,2.90
2022-10-23T11:24:12.543Z,2.60
2022-10-23T11:26:47.529Z,2.60
2022-10-23T11:29:41.409Z,2.72
2022-10-23T11:32:20.568Z,2.20
2022-10-23T11:34:59.333Z,2.60
2022-10-23T11:37:26.896Z,2.50
2022-10-23T11:40:04.883Z,2.40
2022-10-23T11:42:38.698Z,2.70
2022-10-23T11:45:30.100Z,2.35
2022-10-23T11:48:05.396Z,2.80
2022-10-23T11:50:52.147Z,2.20
2022-10-23T11:53:27.559Z,2.45
2022-10-23T11:56:19.542Z,2.40
2022-10-23T11:58:50.452Z,2.60
2022-10-23T12:01:19.899Z,3.42
2022-10-23T12:03:52.606Z,2.67
2022-10-23T12:06:28.974Z,2.55
2022-10-23T12:09:02.084Z,2.38
2022-10-23T12:11:44.398Z,2.28
2022-10-23T12:14:28.773Z,2.50
2022-10-23T12:16:56.103Z,2.42
2022-10-23T12:19:25.480Z,2.42
2022-10-23T12:21:59.603Z,2.50
2022-10-23T12:25:00.717Z,2.42
2022-10-23T12:27:32.329Z,2.42
2022-10-23T12:30:20.859Z,2.20
2022-10-23T12:33:23.122Z,2.38
2022-10-23T12:36:08.197Z,2.85
2022-10-23T12:38:44.361Z,2.50
2022-10-23T12:41:13.871Z,3.38
2022-10-23T12:43:50.330Z,2.40
2022-10-23T12:46:49.076Z,2.38
2022-10-23T12:49:21.395Z,2.53
2022-10-23T12:52:02.359Z,2.17
2022-10-23T12:54:32.082Z,2.17
2022-10-23T12:56:58.741Z,2.00
2022-10-23T12:59:38.615Z,2.22
2022-10-23T13:02:20.301Z,1.92
2022-10-23T13:04:49.172Z,2.10
2022-10-23T13:07:19.562Z,2.28
2022-10-23T13:09:46.861Z,2.00
2022-10-23T13:12:41.152Z,2.00
2022-10-23T13:15:07.661Z,1.70
2022-10-23T13:17:40.652Z,2.00
2022-10-23T13:20:16.317Z,2.20
2022-10-23T13:22:43.245Z,2.38
2022-10-23T13:25:25.459Z,2.03
2022-10-23T13:28:03.431Z,2.20
2022-10-23T13:30:32.640Z,2.33
2022-10-23T13:32:59.876Z,1.77
2022-10-23T13:35:27.267Z,1.70
2022-10-23T13:37:53.926Z,2.03
2022-10-23T13:40:23.669Z,1.70
2022-10-23T13:42:51.874Z,1.85
2022-10-23T13:45:24.050Z,1.45
2022-10-23T13:47:51.507Z,1.88
2022-10-23T13:50:19.358Z,1.90
2022-10-23T13:52:46.351Z,1.85
2022-10-23T13:55:28.242Z,2.00
2022-10-23T13:57:54.885Z,1.80
2022-10-23T14:00:21.913Z,2.10
2022-10-23T14:02:48.866Z,1.58
2022-10-23T14:05:15.536Z,1.83
2022-10-23T14:07:42.388Z,1.77
2022-10-23T14:10:09.292Z,1.60
2022-10-23T14:12:43.696Z,1.40
2022-10-23T14:15:11.480Z,1.83
2022-10-23T14:17:38.492Z,2.00
2022-10-23T14:20:06.358Z,1.60
2022-10-23T14:22:33.334Z,1.83
2022-10-23T14:24:59.966Z,1.58
2022-10-23T14:27:26.526Z,1.40
2022-10-23T14:29:53.267Z,1.50
2022-10-23T14:32:19.801Z,2.03
2022-10-23T14:34:51.457Z,1.50
2022-10-23T14:37:19.831Z,1.70
2022-10-23T14:39:50.028Z,1.63
2022-10-23T14:42:17.455Z,1.50
2022-10-23T14:44:45.008Z,1.45
2022-10-23T14:47:11.879Z,1.65
2022-10-23T14:49:40.238Z,1.40
2022-10-23T14:52:07.335Z,1.60
2022-10-23T14:54:36.367Z,1.75
2022-10-23T14:57:03.704Z,1.60
2022-10-23T14:59:30.641Z,1.85
2022-10-23T15:01:57.240Z,1.50
2022-10-23T15:04:23.996Z,1.52
2022-10-23T15:06:50.569Z,1.42
2022-10-23T15:09:19.553Z,1.85
2022-10-23T15:11:46.710Z,1.50
2022-10-23T15:14:14.355Z,1.20
2022-10-23T15:16:43.735Z,1.20
2022-10-23T15:19:15.166Z,1.60
2022-10-23T15:21:45.247Z,1.30
2022-10-23T15:24:11.902Z,1.42
2022-10-23T15:26:39.558Z,1.52
2022-10-23T15:29:06.654Z,1.92
2022-10-23T15:31:44.502Z,1.33
2022-10-23T15:34:14.819Z,2.08
2022-10-23T15:36:42.621Z,2.22
2022-10-23T15:39:10.451Z,1.60
2022-10-23T15:41:39.486Z,1.40
2022-10-23T15:44:07.208Z,1.55
2022-10-23T15:46:34.461Z,1.98
2022-10-23T15:49:01.154Z,2.00
2022-10-23T15:51:27.910Z,1.75
2022-10-23T15:53:57.163Z,1.95
2022-10-23T15:56:25.069Z,2.10
2022-10-23T15:58:52.114Z,1.80
2022-10-23T16:01:18.919Z,1.50
2022-10-23T16:03:45.799Z,1.83
2022-10-23T16:06:14.250Z,1.80
2022-10-23T16:08:43.972Z,2.60
2022-10-23T16:11:20.259Z,1.50
2022-10-23T16:13:50.221Z,1.67
2022-10-23T16:16:17.696Z,2.00
2022-10-23T16:18:45.215Z,1.58
2022-10-23T16:21:29.476Z,1.67
2022-10-23T16:23:58.128Z,1.45
2022-10-23T16:26:25.935Z,1.80
2022-10-23T16:28:57.767Z,2.13
2022-10-23T16:31:25.859Z,1.58
2022-10-23T16:33:53.453Z,2.03
2022-10-23T16:36:21.334Z,2.15
2022-10-23T16:38:47.988Z,1.90
2022-10-23T16:41:14.593Z,1.92
2022-10-23T16:43:41.412Z,1.85
2022-10-23T16:46:13.245Z,2.13
2022-10-23T16:48:42.034Z,2.33
2022-10-23T16:51:19.931Z,2.63
2022-10-23T16:53:47.601Z,2.20
2022-10-23T16:56:18.876Z,3.40
2022-10-23T16:58:45.934Z,1.80
2022-10-23T17:01:25.250Z,2.20
2022-10-23T17:03:53.291Z,1.95
2022-10-23T17:06:23.239Z,2.10
2022-10-23T17:08:50.292Z,2.15
2022-10-23T17:11:20.367Z,2.00
2022-10-23T17:13:52.363Z,2.05
2022-10-23T17:16:23.727Z,2.17
2022-10-23T17:18:51.052Z,2.47
2022-10-23T17:21:19.809Z,2.20
2022-10-23T17:23:47.338Z,2.45
2022-10-23T17:26:17.341Z,2.08
2022-10-23T17:28:44.361Z,2.22
2022-10-23T17:31:22.810Z,1.95
2022-10-23T17:33:52.475Z,2.35
2022-10-23T17:36:22.461Z,2.35
2022-10-23T17:38:50.575Z,1.95
2022-10-23T17:41:19.417Z,2.20
2022-10-23T17:43:46.868Z,2.55
2022-10-23T17:46:14.475Z,2.20
2022-10-23T17:48:43.572Z,2.33
2022-10-23T17:51:19.244Z,1.98
2022-10-23T17:53:48.010Z,2.40
2022-10-23T17:56:19.183Z,2.05
2022-10-23T17:58:46.940Z,2.10
2022-10-23T18:01:16.654Z,1.92
2022-10-23T18:03:43.658Z,2.00
2022-10-23T18:06:16.003Z,2.28
2022-10-23T18:08:44.162Z,2.00
2022-10-23T18:11:18.540Z,2.30
2022-10-23T18:13:46.420Z,2.40
2022-10-23T18:16:13.915Z,2.28
2022-10-23T18:18:41.940Z,2.00
2022-10-23T18:21:09.992Z,1.85
2022-10-23T18:23:37.595Z,2.60
2022-10-23T18:26:05.580Z,2.40
2022-10-23T18:28:32.710Z,2.58
2022-10-23T18:30:59.341Z,2.03
2022-10-23T18:33:26.592Z,2.40
2022-10-23T18:35:53.246Z,2.13
2022-10-23T18:38:19.788Z,2.10
2022-10-23T18:40:46.348Z,2.90
2022-10-23T18:43:15.103Z,2.30
2022-10-23T18:45:46.842Z,2.45
2022-10-23T18:48:13.682Z,2.28
2022-10-23T18:50:40.350Z,2.00
2022-10-23T18:53:07.595Z,2.13
2022-10-23T18:58:05.597Z,2.17
2022-10-23T19:00:32.299Z,2.17
2022-10-23T19:02:58.870Z,2.20
2022-10-23T19:05:25.587Z,2.13
2022-10-23T19:07:52.544Z,2.00
2022-10-23T19:10:21.160Z,1.92
2022-10-23T19:12:47.986Z,1.70
2022-10-23T19:15:15.012Z,2.03
2022-10-23T19:17:41.666Z,2.05
2022-10-23T19:20:12.535Z,2.50
2022-10-23T19:22:41.116Z,3.25
2022-10-23T19:25:18.830Z,4.55
2022-10-23T19:27:47.813Z,5.25
2022-10-23T19:30:20.579Z,6.90
2022-10-23T19:32:49.936Z,7.60
2022-10-23T19:35:18.620Z,7.40
2022-10-23T19:37:45.734Z,6.63
2022-10-23T19:40:14.354Z,7.15
2022-10-23T19:42:42.732Z,6.18
2022-10-23T19:45:12.933Z,5.20
2022-10-23T19:47:40.147Z,4.10
2022-10-23T19:50:08.124Z,2.90
2022-10-23T19:52:35.057Z,3.08
2022-10-23T19:55:03.226Z,2.28
2022-10-23T19:57:33.844Z,2.38
2022-10-23T20:00:02.101Z,2.42
2022-10-23T20:02:29.222Z,2.28
2022-10-23T20:04:56.095Z,2.20
2022-10-23T20:07:23.494Z,1.92
2022-10-23T20:09:50.200Z,2.10
2022-10-23T20:12:16.836Z,1.75
2022-10-23T20:14:43.887Z,2.35
2022-10-23T20:17:10.411Z,2.15
2022-10-23T20:19:37.243Z,2.22
2022-10-23T20:22:03.862Z,2.30
2022-10-23T20:24:30.578Z,2.40
2022-10-23T20:26:57.267Z,2.10
2022-10-23T20:29:24.963Z,2.10
2022-10-23T20:31:51.905Z,1.98
2022-10-23T20:34:19.191Z,2.05
2022-10-23T20:36:48.485Z,2.10
2022-10-23T20:39:19.033Z,2.65
2022-10-23T20:41:46.477Z,2.30
2022-10-23T20:46:43.818Z,2.35
2022-10-23T20:49:11.899Z,2.00
2022-10-23T20:51:38.809Z,2.30
2022-10-23T20:54:05.781Z,1.90
2022-10-23T20:56:35.170Z,1.85
2022-10-23T20:59:10.541Z,2.65
2022-10-23T21:01:43.429Z,1.83
2022-10-23T21:04:14.249Z,2.25
2022-10-23T21:06:57.769Z,2.00
2022-10-23T21:09:31.292Z,2.40
2022-10-23T21:11:57.910Z,1.73
2022-10-23T21:14:24.550Z,1.92
2022-10-23T21:16:51.155Z,2.90
2022-10-23T21:19:17.793Z,2.00
2022-10-23T21:21:44.571Z,2.03
2022-10-23T21:24:14.834Z,2.17
2022-10-23T21:26:42.192Z,1.95
2022-10-23T21:29:24.277Z,2.35
2022-10-23T21:32:01.089Z,1.88
2022-10-23T21:34:28.890Z,2.15
2022-10-23T21:39:43.998Z,2.30
2022-10-23T21:42:12.190Z,2.10
2022-10-23T21:44:38.794Z,2.30
2022-10-23T21:47:05.524Z,2.05
2022-10-23T21:49:32.317Z,2.08
2022-10-23T21:51:58.943Z,2.40
2022-10-23T21:54:25.643Z,2.10
2022-10-23T21:56:56.104Z,2.05
2022-10-23T21:59:27.662Z,1.80
2022-10-23T22:01:56.886Z,2.00
2022-10-23T22:04:23.619Z,2.00
2022-10-23T22:06:50.565Z,1.85
2022-10-23T22:09:19.561Z,1.73
2022-10-23T22:11:47.989Z,2.00
2022-10-23T22:14:14.563Z,1.83
2022-10-23T22:16:42.194Z,1.80
2022-10-23T22:19:11.732Z,1.75
2022-10-23T22:21:39.051Z,1.95
2022-10-23T22:24:06.459Z,1.50
2022-10-23T22:26:36.055Z,1.48
2022-10-23T22:29:07.107Z,1.50
2022-10-23T22:31:34.901Z,1.55
2022-10-23T22:34:13.170Z,1.77
2022-10-23T22:36:49.315Z,1.98
2022-10-23T22:39:16.066Z,1.45
2022-10-23T22:41:45.560Z,1.90
2022-10-23T22:44:12.233Z,2.03
2022-10-23T22:46:38.926Z,1.95
2022-10-23T22:51:37.590Z,1.77
2022-10-23T22:54:04.264Z,1.83
2022-10-23T22:56:31.412Z,1.80
2022-10-23T22:58:58.420Z,1.98
2022-10-23T23:01:26.976Z,1.75
2022-10-23T23:03:54.172Z,1.85
2022-10-23T23:06:21.655Z,2.03
2022-10-23T23:08:49.843Z,2.13
2022-10-23T23:11:19.014Z,1.80
2022-10-23T23:13:46.203Z,1.55
2022-10-23T23:16:28.132Z,1.80
2022-10-23T23:18:56.351Z,1.90
2022-10-23T23:21:24.049Z,1.60
2022-10-23T23:23:50.667Z,1.98
2022-10-23T23:26:17.458Z,1.77
2022-10-23T23:28:45.348Z,1.80
2022-10-23T23:31:24.337Z,1.80
2022-10-23T23:33:51.705Z,1.85
2022-10-23T23:36:21.539Z,1.70
2022-10-23T23:38:48.215Z,1.80
2022-10-23T23:41:16.737Z,1.95
2022-10-23T23:43:44.325Z,2.70
2022-10-23T23:46:11.402Z,1.42
2022-10-23T23:48:38.432Z,1.70
2022-10-23T23:51:05.688Z,1.30
2022-10-23T23:53:32.549Z,1.65
2022-10-23T23:55:59.509Z,1.27
2022-10-23T23:58:26.107Z,1.30
